Time;durP1;ratioP1;P1;durP2;ratioP2;P2;SDS_P1;SDS_P2;PMS_P1;PMS_P2;Temp;Humidity;BMP_temperature;BMP_pressure;BME280_temperature;BME280_humidity;BME280_pressure;Samples;Min_cycle;Max_cycle;Signal;HPM_P1;HPM_P2
2023/09/06 00:02:37;;;;;;;3.28;2.70;;;;;;;17.82;66.50;100899.47;20732937;28;20205;-81
2023/09/06 00:12:40;;;;;;;6.30;2.83;;;;;;;18.06;65.88;100889.16;20717757;28;20720;-78
2023/09/06 00:22:41;;;;;;;4.50;2.85;;;;;;;17.88;66.32;100877.25;20711479;28;20203;-80
2023/09/06 00:32:44;;;;;;;3.33;2.88;;;;;;;17.68;66.55;100881.16;20715241;28;20221;-80
2023/09/06 00:42:47;;;;;;;9.02;3.42;;;;;;;17.78;66.11;100881.50;20714404;28;20229;-80
2023/09/06 00:52:52;;;;;;;3.33;2.95;;;;;;;17.30;68.14;100887.41;20698065;28;20487;-79
2023/09/06 01:02:53;;;;;;;3.65;2.88;;;;;;;17.44;66.79;100888.63;20694036;28;20209;-81
2023/09/06 01:12:57;;;;;;;3.85;2.97;;;;;;;17.32;67.55;100902.09;20743262;28;20217;-79
2023/09/06 01:23:08;;;;;;;3.22;2.72;;;;;;;17.08;68.46;100900.94;20694122;28;20204;-80
2023/09/06 01:33:11;;;;;;;4.78;3.25;;;;;;;16.85;69.27;100916.88;20709945;28;20228;-80
2023/09/06 01:43:13;;;;;;;5.55;2.63;;;;;;;17.31;68.05;100915.47;20721155;28;20312;-80
2023/09/06 01:53:16;;;;;;;4.55;2.95;;;;;;;16.46;70.33;100898.53;20700206;28;20223;-80
2023/09/06 02:03:17;;;;;;;6.88;3.30;;;;;;;16.43;69.92;100900.06;20705919;28;20495;-80
2023/09/06 02:13:20;;;;;;;10.07;3.20;;;;;;;16.87;69.21;100903.16;20706468;28;20323;-79
2023/09/06 02:23:22;;;;;;;5.85;3.45;;;;;;;16.86;69.31;100918.53;20710142;28;20202;-80
2023/09/06 02:33:28;;;;;;;5.30;3.25;;;;;;;16.60;70.00;100920.94;20723678;28;20221;-81
2023/09/06 02:43:29;;;;;;;5.85;3.20;;;;;;;16.30;70.17;100941.00;20716314;28;20237;-81
2023/09/06 02:53:33;;;;;;;4.93;3.10;;;;;;;16.34;70.67;100947.66;20703322;28;20222;-79
2023/09/06 03:03:35;;;;;;;7.63;3.40;;;;;;;16.24;70.26;100947.28;20705534;28;20198;-79
2023/09/06 03:13:38;;;;;;;6.28;3.00;;;;;;;16.03;70.27;100959.53;20714350;28;20227;-79
2023/09/06 03:23:40;;;;;;;6.03;3.22;;;;;;;16.06;70.03;100958.84;20718381;28;20212;-79
2023/09/06 03:33:43;;;;;;;7.65;3.42;;;;;;;15.72;73.05;100965.66;20696376;28;20221;-80
2023/09/06 03:43:45;;;;;;;6.18;3.17;;;;;;;15.89;72.18;100963.84;20693551;28;20236;-79
2023/09/06 03:53:49;;;;;;;6.75;3.15;;;;;;;15.99;70.55;100977.59;20710621;28;20312;-79
2023/09/06 04:03:51;;;;;;;4.40;2.53;;;;;;;15.82;70.50;100975.78;20684872;28;20226;-79
2023/09/06 04:13:55;;;;;;;7.00;2.83;;;;;;;15.90;71.38;100977.69;20696041;28;20221;-77
2023/09/06 04:23:57;;;;;;;3.25;2.72;;;;;;;15.61;71.20;100983.47;20685955;28;20607;-77
2023/09/06 04:34:04;;;;;;;3.10;2.58;;;;;;;16.29;67.41;100984.78;20699928;28;20440;-80
2023/09/06 04:44:06;;;;;;;4.22;2.53;;;;;;;16.38;68.25;100985.50;20690604;28;20234;-85
2023/09/06 04:54:10;;;;;;;5.60;3.20;;;;;;;15.71;70.45;100998.06;20707417;28;20217;-84
2023/09/06 05:04:12;;;;;;;3.90;2.30;;;;;;;16.36;66.86;101001.28;20699833;28;20227;-78
2023/09/06 05:14:15;;;;;;;3.70;2.35;;;;;;;16.35;68.53;101006.13;20684766;28;20231;-79
2023/09/06 05:24:19;;;;;;;5.43;2.42;;;;;;;16.22;67.05;101012.13;20690588;28;20209;-80
2023/09/06 05:34:22;;;;;;;2.78;2.30;;;;;;;16.60;64.86;101011.88;20682181;28;20516;-80
2023/09/06 05:44:23;;;;;;;4.63;2.05;;;;;;;16.94;63.54;101014.22;20687796;28;20642;-81
2023/09/06 05:54:26;;;;;;;3.70;1.92;;;;;;;16.95;62.14;101013.06;20695813;28;20535;-79
2023/09/06 06:04:28;;;;;;;3.22;1.65;;;;;;;17.09;62.52;101019.19;20683114;28;20197;-80
2023/09/06 06:14:31;;;;;;;5.15;1.90;;;;;;;17.47;60.69;101029.38;20691722;28;20227;-80
2023/09/06 06:24:34;;;;;;;7.05;1.88;;;;;;;18.14;59.46;101041.97;20725084;28;20210;-79
2023/09/06 06:34:39;;;;;;;3.25;2.25;;;;;;;18.14;59.57;101044.81;20694085;28;20614;-81
2023/09/06 06:44:45;;;;;;;6.90;2.15;;;;;;;18.48;58.11;101044.16;20686852;28;20198;-80
2023/09/06 06:54:48;;;;;;;3.83;2.08;;;;;;;18.74;57.70;101042.81;20702793;28;20276;-81
2023/09/06 07:04:50;;;;;;;3.25;2.25;;;;;;;19.11;57.47;101046.19;20693691;28;20429;-79
2023/09/06 07:14:54;;;;;;;4.78;1.98;;;;;;;18.90;57.95;101046.50;20679166;28;20458;-80
2023/09/06 07:24:55;;;;;;;3.20;1.80;;;;;;;19.69;55.61;101041.47;20687783;28;20599;-79
2023/09/06 07:34:58;;;;;;;4.03;2.40;;;;;;;19.90;55.14;101039.06;20684108;28;21497;-81
2023/09/06 07:45:01;;;;;;;3.85;2.10;;;;;;;19.79;56.30;101043.72;20691501;28;20622;-80
2023/09/06 07:55:05;;;;;;;4.40;2.45;;;;;;;20.67;53.06;101052.47;20712342;28;20235;-78
2023/09/06 08:05:07;;;;;;;4.40;2.72;;;;;;;20.84;51.19;101051.16;20703844;28;20206;-80
2023/09/06 08:15:11;;;;;;;6.55;2.30;;;;;;;21.26;50.10;101054.78;20697672;28;20339;-81
2023/09/06 08:25:13;;;;;;;4.18;2.67;;;;;;;21.52;49.99;101047.38;20677882;28;20198;-79
2023/09/06 08:35:17;;;;;;;6.38;2.13;;;;;;;22.05;48.45;101037.50;20696129;28;20662;-80
2023/09/06 08:45:22;;;;;;;2.10;1.90;;;;;;;22.43;47.64;101039.19;20706349;28;20211;-79
2023/09/06 08:55:26;;;;;;;4.75;2.17;;;;;;;22.86;46.18;101037.53;20668358;28;20225;-81
2023/09/06 09:05:27;;;;;;;3.63;2.42;;;;;;;23.35;45.43;101027.72;20670180;28;20293;-80
2023/09/06 09:15:33;;;;;;;4.30;2.13;;;;;;;23.06;43.86;101025.84;20669589;28;20232;-81
2023/09/06 09:25:35;;;;;;;4.20;2.20;;;;;;;23.46;42.56;101028.59;20672658;28;20506;-82
2023/09/06 09:35:40;;;;;;;2.55;2.05;;;;;;;23.95;41.00;101014.91;20691391;28;20302;-78
2023/09/06 09:45:43;;;;;;;2.92;2.33;;;;;;;23.91;38.50;101014.88;20669508;28;20210;-80
2023/09/06 09:55:48;;;;;;;3.13;2.08;;;;;;;24.62;39.01;101020.88;20675297;28;20225;-81
2023/09/06 10:05:50;;;;;;;3.85;1.70;;;;;;;24.95;39.31;101017.63;20695156;28;20654;-79
2023/09/06 10:15:54;;;;;;;3.90;1.98;;;;;;;25.09;37.97;101015.97;20670244;28;20232;-80
2023/09/06 10:25:57;;;;;;;3.47;2.13;;;;;;;24.59;38.51;101010.16;20699783;28;20213;-81
2023/09/06 10:36:02;;;;;;;3.25;1.85;;;;;;;25.07;38.93;100995.41;20695493;28;20521;-78
2023/09/06 10:46:26;;;;;;;4.20;2.10;;;;;;;25.72;36.34;100994.09;20722378;28;20255;-79
2023/09/06 10:56:29;;;;;;;2.65;2.13;;;;;;;25.50;37.58;100991.22;20711688;28;20308;-80
2023/09/06 11:06:51;;;;;;;4.05;2.08;;;;;;;25.77;38.34;100979.22;20707849;28;20288;-80
2023/09/06 11:16:55;;;;;;;6.75;2.00;;;;;;;25.90;36.17;100974.63;20709431;28;20202;-79
2023/09/06 11:26:57;;;;;;;2.65;1.58;;;;;;;26.09;34.43;100965.47;20678470;28;20498;-79
2023/09/06 11:37:03;;;;;;;3.20;1.95;;;;;;;26.59;34.53;100953.59;20716740;28;20226;-79
2023/09/06 11:47:07;;;;;;;1.65;1.40;;;;;;;26.65;32.45;100949.81;20698123;28;20320;-81
2023/09/06 11:57:17;;;;;;;2.38;1.60;;;;;;;26.89;32.66;100944.28;20730679;28;20209;-80
2023/09/06 12:07:23;;;;;;;4.70;1.33;;;;;;;27.32;30.67;100939.72;20701637;28;20216;-81
2023/09/06 12:17:26;;;;;;;2.83;1.27;;;;;;;27.56;31.41;100936.97;20717446;28;20198;-80
2023/09/06 12:27:28;;;;;;;1.65;1.20;;;;;;;27.83;30.03;100929.19;20714200;28;20228;-81
2023/09/06 12:37:36;;;;;;;4.80;1.30;;;;;;;28.05;31.09;100913.19;20701041;28;20564;-80
2023/09/06 12:47:37;;;;;;;2.25;1.27;;;;;;;26.95;31.55;100914.50;20693504;28;20225;-79
2023/09/06 12:57:41;;;;;;;3.42;1.55;;;;;;;27.34;30.52;100902.53;20712015;28;20208;-80
2023/09/06 13:07:42;;;;;;;3.17;1.30;;;;;;;28.44;30.61;100891.53;20693699;28;20221;-82
2023/09/06 13:17:45;;;;;;;2.25;1.90;;;;;;;27.83;31.94;100882.09;20722109;28;20209;-81
2023/09/06 13:27:47;;;;;;;3.97;1.70;;;;;;;28.89;29.78;100880.38;20697990;28;20252;-81
2023/09/06 13:37:50;;;;;;;4.88;1.70;;;;;;;29.03;29.11;100867.69;20687667;28;20221;-82
2023/09/06 13:47:52;;;;;;;1.83;1.40;;;;;;;28.56;31.00;100855.31;20677947;28;20233;-81
2023/09/06 13:57:55;;;;;;;1.50;1.25;;;;;;;28.66;28.80;100855.13;20718647;28;20210;-79
2023/09/06 14:07:57;;;;;;;3.05;2.08;;;;;;;28.07;31.19;100849.06;20697917;28;20252;-81
2023/09/06 14:18:01;;;;;;;1.73;1.60;;;;;;;28.30;31.39;100845.44;20702952;28;20204;-78
2023/09/06 14:28:03;;;;;;;4.35;2.95;;;;;;;28.51;30.78;100838.44;20714911;28;20228;-78
2023/09/06 14:38:07;;;;;;;2.97;1.30;;;;;;;28.55;32.33;100845.00;20704406;28;20240;-78
2023/09/06 14:48:10;;;;;;;3.80;1.33;;;;;;;28.12;33.17;100837.00;20677943;28;20218;-80
2023/09/06 14:58:14;;;;;;;2.85;1.52;;;;;;;27.90;34.58;100824.97;20710352;28;20661;-78
2023/09/06 15:08:17;;;;;;;3.15;1.60;;;;;;;27.97;34.64;100824.03;20705994;28;20261;-80
2023/09/06 15:18:21;;;;;;;2.90;1.40;;;;;;;27.73;35.51;100826.03;20700478;28;20620;-81
2023/09/06 15:28:23;;;;;;;2.75;1.60;;;;;;;27.02;37.89;100827.75;20695981;28;20225;-81
2023/09/06 15:38:26;;;;;;;1.55;1.42;;;;;;;26.91;37.67;100832.03;20716962;28;20234;-79
2023/09/06 15:48:28;;;;;;;2.20;1.85;;;;;;;27.30;36.84;100826.63;20697249;28;20233;-79
2023/09/06 15:58:31;;;;;;;3.55;2.03;;;;;;;26.87;38.81;100826.31;20691169;28;20514;-77
2023/09/06 16:08:33;;;;;;;4.45;2.25;;;;;;;27.15;37.58;100833.78;20702833;28;20228;-77
2023/09/06 16:18:37;;;;;;;5.32;1.92;;;;;;;26.72;36.34;100819.03;20690418;28;20206;-79
2023/09/06 16:28:39;;;;;;;3.42;1.65;;;;;;;27.20;34.49;100815.19;20685900;28;20229;-77
2023/09/06 16:38:42;;;;;;;4.15;1.85;;;;;;;26.86;34.71;100826.75;20689012;28;20235;-79
2023/09/06 16:48:43;;;;;;;12.80;6.00;;;;;;;26.48;36.04;100825.88;20703568;28;20510;-79
2023/09/06 16:58:47;;;;;;;4.15;1.73;;;;;;;26.35;35.94;100823.53;20697221;28;20240;-78
2023/09/06 17:08:49;;;;;;;4.22;2.25;;;;;;;26.04;37.98;100818.81;20708989;28;20225;-78
2023/09/06 17:18:52;;;;;;;3.95;1.95;;;;;;;25.74;39.76;100815.72;20711666;28;20198;-78
2023/09/06 17:28:53;;;;;;;3.65;2.05;;;;;;;25.64;40.71;100809.59;20691546;28;20221;-78
2023/09/06 17:38:56;;;;;;;6.03;2.20;;;;;;;25.14;42.90;100811.06;20689886;28;20231;-77
2023/09/06 17:49:01;;;;;;;6.45;2.28;;;;;;;24.88;43.73;100812.38;20691265;28;20229;-79
2023/09/06 17:59:04;;;;;;;6.78;2.70;;;;;;;24.46;43.84;100801.75;20696142;28;20207;-80
2023/09/06 18:09:10;;;;;;;3.75;2.72;;;;;;;24.85;42.85;100816.91;20699770;28;20228;-78
2023/09/06 18:19:13;;;;;;;4.68;2.75;;;;;;;23.99;47.01;100826.81;20709385;28;20205;-80
2023/09/06 18:29:14;;;;;;;4.88;2.60;;;;;;;24.27;44.25;100831.81;20682634;28;20542;-79
2023/09/06 18:39:17;;;;;;;4.00;3.00;;;;;;;24.43;44.52;100837.09;20707084;28;20264;-79
2023/09/06 18:49:22;;;;;;;4.85;2.67;;;;;;;24.22;44.79;100858.91;20723725;28;20965;-79
2023/09/06 18:59:25;;;;;;;3.95;3.03;;;;;;;24.06;45.98;100863.38;20716189;28;20611;-79
2023/09/06 19:09:27;;;;;;;3.13;2.33;;;;;;;23.61;46.73;100879.31;20726766;28;20221;-80
2023/09/06 19:19:34;;;;;;;6.88;2.40;;;;;;;23.28;46.80;100886.94;20710820;28;20244;-79
2023/09/06 19:29:36;;;;;;;3.47;2.33;;;;;;;23.13;46.09;100894.66;20721030;28;20228;-79
2023/09/06 19:39:39;;;;;;;6.20;2.60;;;;;;;23.04;47.56;100901.97;20700715;28;20276;-79
2023/09/06 19:49:41;;;;;;;3.50;2.78;;;;;;;22.41;47.82;100897.41;20683728;28;20217;-79
2023/09/06 19:59:44;;;;;;;2.45;2.20;;;;;;;22.37;49.66;100896.50;20721854;28;20194;-79
2023/09/06 20:09:45;;;;;;;5.70;4.00;;;;;;;22.13;50.03;100898.75;20711924;28;20237;-78
2023/09/06 20:19:49;;;;;;;4.45;2.83;;;;;;;22.09;47.86;100909.34;20716165;28;20206;-78
2023/09/06 20:29:51;;;;;;;6.45;4.18;;;;;;;21.82;50.53;100918.50;20695742;28;20221;-79
2023/09/06 20:39:55;;;;;;;5.78;2.92;;;;;;;21.91;50.01;100925.56;20712948;28;20229;-78
2023/09/06 20:49:57;;;;;;;7.65;3.60;;;;;;;21.48;52.29;100920.50;20708153;28;20221;-79
2023/09/06 21:00:00;;;;;;;9.88;3.65;;;;;;;21.40;52.20;100933.91;20724869;28;20259;-79
2023/09/06 21:10:02;;;;;;;6.70;3.33;;;;;;;20.71;55.49;100934.09;20726446;28;20227;-80
2023/09/06 21:20:07;;;;;;;3.47;3.17;;;;;;;20.36;56.50;100942.88;20728513;28;20193;-80
2023/09/06 21:30:09;;;;;;;4.97;3.28;;;;;;;20.28;57.02;100951.66;20714232;28;20224;-80
2023/09/06 21:40:13;;;;;;;6.55;3.08;;;;;;;20.26;56.18;100945.53;20688348;28;20240;-79
2023/09/06 21:50:14;;;;;;;6.95;2.80;;;;;;;20.24;57.02;100950.81;20682706;28;20229;-79
2023/09/06 22:00:25;;;;;;;4.80;2.78;;;;;;;19.98;57.51;100965.81;20710110;28;20209;-80
2023/09/06 22:10:26;;;;;;;5.50;2.35;;;;;;;19.90;57.61;100976.22;20722915;28;20235;-79
2023/09/06 22:20:31;;;;;;;5.53;2.80;;;;;;;19.84;57.99;100977.75;20712806;28;20594;-81
2023/09/06 22:30:33;;;;;;;3.50;2.67;;;;;;;19.78;57.79;100978.41;20705416;28;20264;-79
2023/09/06 22:40:36;;;;;;;3.10;2.80;;;;;;;19.53;58.52;100975.03;20711116;28;20681;-80
2023/09/06 22:50:38;;;;;;;3.67;2.53;;;;;;;19.11;61.01;100967.13;20708768;28;20232;-79
2023/09/06 23:00:41;;;;;;;4.30;2.85;;;;;;;19.46;58.58;100972.03;20697320;28;20216;-78
2023/09/06 23:10:43;;;;;;;3.80;2.75;;;;;;;19.59;57.57;100968.66;20709715;28;20222;-79
2023/09/06 23:20:48;;;;;;;2.70;2.50;;;;;;;19.01;59.77;100981.97;20699758;28;20221;-78
2023/09/06 23:30:54;;;;;;;7.32;2.90;;;;;;;19.17;58.71;100979.94;20711041;28;20225;-78
2023/09/06 23:40:58;;;;;;;8.98;3.05;;;;;;;18.47;61.75;100984.66;20721924;28;20237;-78
2023/09/06 23:51:00;;;;;;;3.92;2.97;;;;;;;18.92;60.25;100976.47;20713340;28;20316;-78
